Time;durP1;ratioP1;P1;durP2;ratioP2;P2;SDS_P1;SDS_P2;PMS_P1;PMS_P2;Temp;Humidity;BMP_temperature;BMP_pressure;BME280_temperature;BME280_humidity;BME280_pressure;Samples;Min_cycle;Max_cycle;Signal;HPM_P1;HPM_P2
2023/08/06 00:02:19;;;;;;;11.50;8.00;;;14.70;99.90;;;;;;4970408;28;20173;-76
2023/08/06 00:04:45;;;;;;;12.65;8.35;;;14.60;99.90;;;;;;4955733;28;20123;-76
2023/08/06 00:07:10;;;;;;;9.20;8.10;;;14.60;99.90;;;;;;4973515;28;20045;-75
2023/08/06 00:09:36;;;;;;;9.30;7.72;;;14.60;99.90;;;;;;4955363;28;20038;-74
2023/08/06 00:12:02;;;;;;;8.50;7.60;;;14.60;99.90;;;;;;4965947;28;20399;-76
2023/08/06 00:14:27;;;;;;;10.82;8.23;;;14.60;99.90;;;;;;4967401;28;20031;-75
2023/08/06 00:16:53;;;;;;;9.77;7.88;;;14.50;99.90;;;;;;4987731;28;20065;-75
2023/08/06 00:19:18;;;;;;;9.23;7.45;;;14.50;99.90;;;;;;4970751;28;20454;-75
2023/08/06 00:21:44;;;;;;;9.68;7.03;;;14.50;99.90;;;;;;4987089;28;20046;-75
2023/08/06 00:24:09;;;;;;;9.50;7.05;;;14.50;99.90;;;;;;4971220;28;20042;-76
2023/08/06 00:26:35;;;;;;;8.80;6.80;;;14.50;99.90;;;;;;4974037;28;20050;-76
2023/08/06 00:29:00;;;;;;;9.40;6.82;;;14.50;99.90;;;;;;4972262;28;20508;-74
2023/08/06 00:31:26;;;;;;;10.15;6.88;;;14.40;99.90;;;;;;4986504;28;20552;-75
2023/08/06 00:33:51;;;;;;;9.05;7.10;;;14.40;99.90;;;;;;4951022;28;20074;-75
2023/08/06 00:36:17;;;;;;;8.98;6.75;;;14.40;99.90;;;;;;4966075;28;20045;-76
2023/08/06 00:38:42;;;;;;;10.80;7.07;;;14.40;99.90;;;;;;4965350;28;20034;-75
2023/08/06 00:41:08;;;;;;;9.00;6.50;;;14.40;99.90;;;;;;4964906;28;20030;-75
2023/08/06 00:43:33;;;;;;;8.13;6.60;;;14.40;99.90;;;;;;4973228;28;20046;-75
2023/08/06 00:46:00;;;;;;;9.35;6.72;;;14.40;99.90;;;;;;4963661;28;20051;-76
2023/08/06 00:48:26;;;;;;;8.90;6.70;;;14.40;99.90;;;;;;4959978;28;20046;-75
2023/08/06 00:50:51;;;;;;;8.48;6.68;;;14.30;99.90;;;;;;4970872;28;20043;-75
2023/08/06 00:53:17;;;;;;;9.48;6.90;;;14.30;99.90;;;;;;4969938;28;20401;-75
2023/08/06 00:55:44;;;;;;;10.15;6.97;;;14.30;99.90;;;;;;4971566;28;20069;-75
2023/08/06 00:58:10;;;;;;;9.27;6.63;;;14.40;99.90;;;;;;4963455;28;20042;-75
2023/08/06 01:00:36;;;;;;;8.15;7.00;;;14.30;99.90;;;;;;4965405;28;20050;-74
2023/08/06 01:03:01;;;;;;;9.00;7.20;;;14.30;99.90;;;;;;4965528;28;20050;-75
2023/08/06 01:05:27;;;;;;;12.80;7.40;;;14.30;99.90;;;;;;4966792;28;20031;-74
2023/08/06 01:08:26;;;;;;;9.75;7.28;;;14.30;99.90;;;;;;4965756;28;20113;-75
2023/08/06 01:11:22;;;;;;;12.43;7.32;;;14.30;99.90;;;;;;4970012;28;20038;-74
2023/08/06 01:13:51;;;;;;;7.70;6.90;;;14.30;99.90;;;;;;4970825;28;20149;-75
2023/08/06 01:16:18;;;;;;;14.32;7.28;;;14.30;99.90;;;;;;4968314;28;20038;-75
2023/08/06 01:18:46;;;;;;;10.40;8.10;;;14.30;99.90;;;;;;4951401;28;20049;-75
2023/08/06 01:21:18;;;;;;;10.57;7.63;;;14.30;99.90;;;;;;4981463;28;20043;-75
2023/08/06 01:23:45;;;;;;;12.20;7.63;;;14.30;99.90;;;;;;4972772;28;20472;-75
2023/08/06 01:26:14;;;;;;;10.25;8.55;;;14.30;99.90;;;;;;4965120;28;20043;-76
2023/08/06 01:29:07;;;;;;;10.00;8.38;;;14.30;99.90;;;;;;4968047;28;20605;-75
2023/08/06 01:31:38;;;;;;;9.70;8.20;;;14.30;99.90;;;;;;4974268;28;20038;-75
2023/08/06 01:34:09;;;;;;;10.23;8.10;;;14.30;99.90;;;;;;4966788;28;20046;-75
2023/08/06 01:36:35;;;;;;;11.52;8.32;;;14.30;99.90;;;;;;4948368;28;20042;-75
2023/08/06 01:39:00;;;;;;;11.18;8.82;;;14.30;99.90;;;;;;4963681;28;20374;-76
2023/08/06 01:41:26;;;;;;;11.23;9.38;;;14.30;99.90;;;;;;4973093;28;20042;-76
2023/08/06 01:43:51;;;;;;;11.68;9.32;;;14.30;99.90;;;;;;4973293;28;20145;-75
2023/08/06 01:46:17;;;;;;;12.35;10.18;;;14.30;99.90;;;;;;4972077;28;20508;-76
2023/08/06 01:48:43;;;;;;;11.30;9.10;;;14.30;99.90;;;;;;4961511;28;20412;-75
2023/08/06 01:51:08;;;;;;;12.68;10.45;;;14.30;99.90;;;;;;4967842;28;20041;-76
2023/08/06 01:53:34;;;;;;;14.18;10.63;;;14.30;99.90;;;;;;4970248;28;20264;-76
2023/08/06 01:55:59;;;;;;;14.25;9.90;;;14.30;99.90;;;;;;4968812;28;20042;-76
2023/08/06 01:58:25;;;;;;;12.68;9.98;;;14.30;99.90;;;;;;4967280;28;20045;-76
2023/08/06 02:00:50;;;;;;;13.10;10.45;;;14.30;99.90;;;;;;4974658;28;20181;-76
2023/08/06 02:03:16;;;;;;;15.57;10.05;;;14.30;99.90;;;;;;4969295;28;20501;-75
2023/08/06 02:05:42;;;;;;;12.93;10.30;;;14.30;99.90;;;;;;4951833;28;20045;-76
2023/08/06 02:08:07;;;;;;;14.00;12.00;;;14.30;99.90;;;;;;4964377;28;20031;-75
2023/08/06 02:10:33;;;;;;;13.88;10.73;;;14.30;99.90;;;;;;4988528;28;20031;-76
2023/08/06 02:12:58;;;;;;;12.60;11.05;;;14.30;99.90;;;;;;4975942;28;20497;-75
2023/08/06 02:15:24;;;;;;;15.13;11.77;;;14.20;99.90;;;;;;4963560;28;20043;-76
2023/08/06 02:17:49;;;;;;;14.35;11.88;;;14.20;99.90;;;;;;4970316;28;20037;-76
2023/08/06 02:20:15;;;;;;;14.30;11.57;;;14.20;99.90;;;;;;4976677;28;20125;-76
2023/08/06 02:22:41;;;;;;;15.50;11.98;;;14.20;99.90;;;;;;4973821;28;20034;-75
2023/08/06 02:25:06;;;;;;;15.35;11.27;;;14.20;99.90;;;;;;4967854;28;20039;-75
2023/08/06 02:27:32;;;;;;;13.88;11.75;;;14.20;99.90;;;;;;4971072;28;20074;-75
2023/08/06 02:29:58;;;;;;;14.50;11.90;;;14.20;99.90;;;;;;4966734;28;20034;-76
2023/08/06 02:32:23;;;;;;;13.48;11.52;;;14.20;99.90;;;;;;4970052;28;20482;-76
2023/08/06 02:34:49;;;;;;;17.10;11.90;;;14.20;99.90;;;;;;4967570;28;20187;-76
2023/08/06 02:37:14;;;;;;;14.68;11.88;;;14.20;99.90;;;;;;4986881;28;20125;-76
2023/08/06 02:39:40;;;;;;;13.85;12.07;;;14.20;99.90;;;;;;4967794;28;20503;-76
2023/08/06 02:42:09;;;;;;;15.32;12.05;;;14.20;99.90;;;;;;4966814;28;20722;-76
2023/08/06 02:44:35;;;;;;;15.30;11.70;;;14.20;99.90;;;;;;4961836;28;20485;-75
2023/08/06 02:47:01;;;;;;;16.27;11.60;;;14.20;99.90;;;;;;4969756;28;20034;-75
2023/08/06 02:49:27;;;;;;;15.25;12.05;;;14.20;99.90;;;;;;4988180;28;20046;-76
2023/08/06 02:51:52;;;;;;;13.95;12.07;;;14.20;99.90;;;;;;4973183;28;20038;-76
2023/08/06 02:54:18;;;;;;;15.55;12.02;;;14.20;99.90;;;;;;4970635;28;20039;-76
2023/08/06 02:56:44;;;;;;;12.88;11.48;;;14.20;99.90;;;;;;4969313;28;20038;-75
2023/08/06 02:59:11;;;;;;;15.55;11.65;;;14.20;99.90;;;;;;4974526;28;20046;-76
2023/08/06 03:01:36;;;;;;;14.52;12.05;;;14.20;99.90;;;;;;4968609;28;20083;-75
2023/08/06 03:04:03;;;;;;;14.07;12.13;;;14.20;99.90;;;;;;4966141;28;20131;-76
2023/08/06 03:06:29;;;;;;;16.80;11.93;;;14.20;99.90;;;;;;4970082;28;20038;-76
2023/08/06 03:08:54;;;;;;;15.50;12.43;;;14.20;99.90;;;;;;4951043;28;20092;-76
2023/08/06 03:11:20;;;;;;;15.40;11.23;;;14.20;99.90;;;;;;4972967;28;20080;-76
2023/08/06 03:13:47;;;;;;;13.15;10.93;;;14.20;99.90;;;;;;4966704;28;20239;-76
2023/08/06 03:16:12;;;;;;;17.48;11.75;;;14.20;99.90;;;;;;4966580;28;20521;-75
2023/08/06 03:18:38;;;;;;;12.45;10.82;;;14.20;99.90;;;;;;4970892;28;20069;-76
2023/08/06 03:21:03;;;;;;;13.32;11.35;;;14.20;99.90;;;;;;4990845;28;20517;-75
2023/08/06 03:23:29;;;;;;;12.88;11.23;;;14.20;99.90;;;;;;4991588;28;20050;-75
2023/08/06 03:25:54;;;;;;;12.85;10.27;;;14.20;99.90;;;;;;4971508;28;20038;-75
2023/08/06 03:28:20;;;;;;;13.00;10.55;;;14.30;99.90;;;;;;4963222;28;20054;-75
2023/08/06 03:30:45;;;;;;;14.07;11.23;;;14.20;99.90;;;;;;4970403;28;20031;-76
2023/08/06 03:33:11;;;;;;;13.88;11.57;;;14.30;99.90;;;;;;4967586;28;20093;-76
2023/08/06 03:35:37;;;;;;;15.18;11.63;;;14.30;99.90;;;;;;4974514;28;20069;-77
2023/08/06 03:38:02;;;;;;;14.85;11.20;;;14.30;99.90;;;;;;4967641;28;20391;-75
2023/08/06 03:40:28;;;;;;;13.30;10.45;;;14.30;99.90;;;;;;4991616;28;20044;-75
2023/08/06 03:42:53;;;;;;;12.93;9.68;;;14.30;99.90;;;;;;4969875;28;20066;-76
2023/08/06 03:45:19;;;;;;;12.35;10.82;;;14.30;99.90;;;;;;4968417;28;20042;-76
2023/08/06 03:47:44;;;;;;;12.20;10.73;;;14.30;99.90;;;;;;4973151;28;20050;-76
2023/08/06 03:50:10;;;;;;;12.85;10.45;;;14.20;99.90;;;;;;4964995;28;20432;-76
2023/08/06 03:52:35;;;;;;;12.52;9.93;;;14.30;99.90;;;;;;4962979;28;20395;-76
2023/08/06 03:55:01;;;;;;;13.63;10.52;;;14.30;99.90;;;;;;4973380;28;20092;-76
2023/08/06 03:57:27;;;;;;;13.50;11.20;;;14.30;99.90;;;;;;4972045;28;20066;-76
2023/08/06 03:59:52;;;;;;;14.05;10.75;;;14.30;99.90;;;;;;4964905;28;20101;-76
2023/08/06 04:02:18;;;;;;;13.15;10.38;;;14.30;99.90;;;;;;4962925;28;20039;-75
2023/08/06 04:04:43;;;;;;;13.25;10.50;;;14.30;99.90;;;;;;4973922;28;20051;-76
2023/08/06 04:07:09;;;;;;;12.70;10.55;;;14.20;99.90;;;;;;4986018;28;20031;-75
2023/08/06 04:09:50;;;;;;;12.20;10.18;;;14.20;99.90;;;;;;4970616;28;20050;-76
2023/08/06 04:12:16;;;;;;;17.05;11.00;;;14.30;99.90;;;;;;4973226;28;20039;-76
2023/08/06 04:14:41;;;;;;;12.88;9.88;;;14.30;99.90;;;;;;4951201;28;20042;-76
2023/08/06 04:17:06;;;;;;;11.38;10.18;;;14.30;99.90;;;;;;4966206;28;20044;-76
2023/08/06 04:19:32;;;;;;;13.32;9.60;;;14.20;99.90;;;;;;4989004;28;20436;-76
2023/08/06 04:21:57;;;;;;;13.07;10.30;;;14.30;99.90;;;;;;4969071;28;20454;-76
2023/08/06 04:24:23;;;;;;;13.15;10.30;;;14.30;99.90;;;;;;4972931;28;20041;-75
2023/08/06 04:26:48;;;;;;;12.45;9.70;;;14.30;99.90;;;;;;4965433;28;20053;-75
2023/08/06 04:29:14;;;;;;;12.25;10.38;;;14.30;99.90;;;;;;4966688;28;20038;-75
2023/08/06 04:31:39;;;;;;;11.73;9.27;;;14.30;99.90;;;;;;4968856;28;20117;-76
2023/08/06 04:34:05;;;;;;;11.05;9.82;;;14.30;99.90;;;;;;4965265;28;20042;-75
2023/08/06 04:36:31;;;;;;;13.02;10.15;;;14.30;99.90;;;;;;4973597;28;20046;-76
2023/08/06 04:38:56;;;;;;;12.10;9.68;;;14.30;99.90;;;;;;4971521;28;20034;-76
2023/08/06 04:41:22;;;;;;;12.90;9.52;;;14.40;99.90;;;;;;4962887;28;20421;-76
2023/08/06 04:43:47;;;;;;;13.20;9.57;;;14.30;99.90;;;;;;4970947;28;20045;-76
2023/08/06 04:46:13;;;;;;;10.77;9.43;;;14.30;99.90;;;;;;4962865;28;20039;-75
2023/08/06 04:48:38;;;;;;;12.05;9.40;;;14.30;99.90;;;;;;4975668;28;20426;-76
2023/08/06 04:51:04;;;;;;;12.25;9.77;;;14.40;99.90;;;;;;4977102;28;20083;-75
2023/08/06 04:53:29;;;;;;;10.05;8.85;;;14.40;99.90;;;;;;4973031;28;20049;-76
2023/08/06 04:55:55;;;;;;;11.43;9.32;;;14.40;99.90;;;;;;4971228;28;20042;-75
2023/08/06 04:58:20;;;;;;;11.23;8.88;;;14.50;99.90;;;;;;4971833;28;20046;-76
2023/08/06 05:00:46;;;;;;;14.02;9.25;;;14.50;99.90;;;;;;4972007;28;20038;-76
2023/08/06 05:03:12;;;;;;;12.13;8.95;;;14.50;99.90;;;;;;4979461;28;20034;-75
2023/08/06 05:05:40;;;;;;;11.32;8.40;;;14.50;99.90;;;;;;4979305;28;20439;-75
2023/08/06 05:08:05;;;;;;;12.95;9.82;;;14.50;99.90;;;;;;4975003;28;20069;-76
2023/08/06 05:10:31;;;;;;;10.63;9.50;;;14.50;99.90;;;;;;4977133;28;20073;-75
2023/08/06 05:12:56;;;;;;;10.70;8.75;;;14.50;99.90;;;;;;4969072;28;20518;-75
2023/08/06 05:15:22;;;;;;;11.55;8.70;;;14.50;99.90;;;;;;4975040;28;20042;-75
2023/08/06 05:17:48;;;;;;;10.43;8.70;;;14.50;99.90;;;;;;4961053;28;20076;-75
2023/08/06 05:20:13;;;;;;;14.50;9.52;;;14.50;99.90;;;;;;4979337;28;20032;-75
2023/08/06 05:22:39;;;;;;;9.35;8.35;;;14.40;99.90;;;;;;4971621;28;20118;-75
2023/08/06 05:25:06;;;;;;;11.02;8.40;;;14.40;99.90;;;;;;4970403;28;20042;-75
2023/08/06 05:27:31;;;;;;;10.77;8.52;;;14.40;99.90;;;;;;4979433;28;20065;-75
2023/08/06 05:29:57;;;;;;;10.82;8.60;;;14.40;99.90;;;;;;4974197;28;20038;-75
2023/08/06 05:32:22;;;;;;;9.48;8.43;;;14.40;99.90;;;;;;4968956;28;20117;-76
2023/08/06 05:34:48;;;;;;;10.35;8.57;;;14.40;99.90;;;;;;4968878;28;20138;-76
2023/08/06 05:37:13;;;;;;;13.25;8.52;;;14.40;99.90;;;;;;4965085;28;20049;-75
2023/08/06 05:39:39;;;;;;;10.40;8.80;;;14.50;99.90;;;;;;4979416;28;20414;-76
2023/08/06 05:42:06;;;;;;;12.93;8.80;;;14.50;99.90;;;;;;4971489;28;20259;-76
2023/08/06 05:44:32;;;;;;;13.43;8.50;;;14.50;99.90;;;;;;4973039;28;20057;-75
2023/08/06 05:46:57;;;;;;;10.82;8.68;;;14.50;99.90;;;;;;4976681;28;20421;-75
2023/08/06 05:49:23;;;;;;;10.50;8.23;;;14.50;99.90;;;;;;4973823;28;20463;-76
2023/08/06 05:51:48;;;;;;;11.75;8.80;;;14.50;99.90;;;;;;4974164;28;20070;-76
2023/08/06 05:54:14;;;;;;;12.85;8.73;;;14.60;99.90;;;;;;4986992;28;20121;-75
2023/08/06 05:56:39;;;;;;;12.90;9.23;;;14.60;99.90;;;;;;4972056;28;20043;-76
2023/08/06 05:59:05;;;;;;;9.18;8.10;;;14.70;99.90;;;;;;4970383;28;20053;-76
2023/08/06 06:01:30;;;;;;;11.38;8.77;;;14.70;99.90;;;;;;4970004;28;20062;-77
2023/08/06 06:03:56;;;;;;;12.38;9.02;;;14.80;99.90;;;;;;4975867;28;20049;-76
2023/08/06 06:06:21;;;;;;;9.90;8.60;;;14.90;99.90;;;;;;4990097;28;20456;-76
2023/08/06 06:08:47;;;;;;;9.48;8.48;;;14.90;99.90;;;;;;4976438;28;20375;-76
2023/08/06 06:11:12;;;;;;;11.18;8.48;;;15.00;99.90;;;;;;4983191;28;20041;-76
2023/08/06 06:13:38;;;;;;;9.65;8.65;;;15.00;99.90;;;;;;4989072;28;20038;-76
2023/08/06 06:16:05;;;;;;;11.98;8.75;;;15.10;99.90;;;;;;4993800;28;20294;-77
2023/08/06 06:18:30;;;;;;;11.18;8.55;;;15.10;99.90;;;;;;4993687;28;20501;-77
2023/08/06 06:20:56;;;;;;;12.85;8.55;;;15.20;99.90;;;;;;4988189;28;20124;-77
2023/08/06 06:23:21;;;;;;;10.20;8.93;;;15.30;99.90;;;;;;4976564;28;20038;-76
2023/08/06 06:25:49;;;;;;;10.77;8.75;;;15.30;99.90;;;;;;4985801;28;20045;-77
2023/08/06 06:28:14;;;;;;;10.45;8.73;;;15.30;99.90;;;;;;4990005;28;20145;-75
2023/08/06 06:30:41;;;;;;;11.25;8.80;;;15.40;99.90;;;;;;4990400;28;20117;-76
2023/08/06 06:33:07;;;;;;;11.50;8.85;;;15.50;99.90;;;;;;4991109;28;20666;-76
2023/08/06 06:35:33;;;;;;;9.60;8.57;;;15.60;99.90;;;;;;4987419;28;20121;-75
2023/08/06 06:37:58;;;;;;;9.75;8.75;;;15.60;99.90;;;;;;4990264;28;20485;-77
2023/08/06 06:40:24;;;;;;;9.13;8.15;;;15.60;99.90;;;;;;4989222;28;20037;-77
2023/08/06 06:42:49;;;;;;;10.57;8.55;;;15.70;99.90;;;;;;4988667;28;20104;-77
2023/08/06 06:45:15;;;;;;;10.35;8.70;;;15.70;99.90;;;;;;4985699;28;20048;-77
2023/08/06 06:47:40;;;;;;;11.88;8.82;;;15.70;99.90;;;;;;4972165;28;20114;-76
2023/08/06 06:50:06;;;;;;;10.38;8.20;;;15.80;99.90;;;;;;4976205;28;20141;-76
2023/08/06 06:52:32;;;;;;;10.25;8.52;;;15.80;99.90;;;;;;4975031;28;20136;-77
2023/08/06 06:54:57;;;;;;;13.35;9.05;;;15.90;99.90;;;;;;4983181;28;20044;-77
2023/08/06 06:57:23;;;;;;;11.50;8.38;;;15.90;99.90;;;;;;4968890;28;20043;-77
2023/08/06 06:59:48;;;;;;;9.38;8.43;;;16.00;99.90;;;;;;4975730;28;20490;-77
2023/08/06 07:02:14;;;;;;;10.52;8.30;;;16.10;99.90;;;;;;4961903;28;20445;-77
2023/08/06 07:04:39;;;;;;;9.05;8.07;;;16.10;99.90;;;;;;4975967;28;20076;-79
2023/08/06 07:07:05;;;;;;;9.82;7.78;;;16.10;99.90;;;;;;4975352;28;20061;-79
2023/08/06 07:09:31;;;;;;;11.27;8.02;;;16.20;99.90;;;;;;4974405;28;20034;-77
2023/08/06 07:11:56;;;;;;;9.25;7.40;;;16.30;99.90;;;;;;4971292;28;20051;-76
2023/08/06 07:14:22;;;;;;;9.25;8.00;;;16.30;99.90;;;;;;4967002;28;20092;-76
2023/08/06 07:16:48;;;;;;;9.57;8.07;;;16.40;99.90;;;;;;4989529;28;20042;-78
2023/08/06 07:19:13;;;;;;;11.82;8.23;;;16.50;99.90;;;;;;4987275;28;20038;-76
2023/08/06 07:21:39;;;;;;;9.15;7.80;;;16.60;99.90;;;;;;4992586;28;20414;-77
2023/08/06 07:24:04;;;;;;;8.77;7.85;;;16.70;99.90;;;;;;4974120;28;20521;-77
2023/08/06 07:26:30;;;;;;;9.48;7.25;;;16.70;99.90;;;;;;4965344;28;20065;-78
2023/08/06 07:28:56;;;;;;;8.00;7.20;;;16.80;99.90;;;;;;4969697;28;20065;-77
2023/08/06 07:31:21;;;;;;;8.00;7.20;;;16.80;99.90;;;;;;4970601;28;20109;-77
2023/08/06 07:33:47;;;;;;;8.55;7.32;;;16.90;99.90;;;;;;4972299;28;20042;-77
2023/08/06 07:36:14;;;;;;;8.35;6.78;;;17.00;99.90;;;;;;4970245;28;20038;-78
2023/08/06 07:38:40;;;;;;;11.52;7.38;;;17.00;99.90;;;;;;4962537;28;20074;-78
2023/08/06 07:41:05;;;;;;;8.18;7.20;;;17.10;99.90;;;;;;4967335;28;20089;-78
2023/08/06 07:43:31;;;;;;;8.50;7.03;;;17.20;99.90;;;;;;4974321;28;20034;-77
2023/08/06 07:46:00;;;;;;;10.05;6.60;;;17.20;99.90;;;;;;4968675;28;20457;-78
2023/08/06 07:48:27;;;;;;;7.88;6.22;;;17.30;99.90;;;;;;4972771;28;20425;-77
2023/08/06 07:50:53;;;;;;;7.90;6.05;;;17.50;99.90;;;;;;4971895;28;20034;-77
2023/08/06 07:53:23;;;;;;;9.73;6.00;;;17.70;99.90;;;;;;4972601;28;20048;-77
2023/08/06 07:55:53;;;;;;;7.72;5.65;;;18.00;99.90;;;;;;4965652;28;20150;-76
2023/08/06 07:58:20;;;;;;;9.23;6.45;;;18.20;99.90;;;;;;4964276;28;20120;-77
2023/08/06 08:00:46;;;;;;;8.93;5.72;;;18.60;99.90;;;;;;4984025;28;20034;-77
2023/08/06 08:03:15;;;;;;;6.03;5.32;;;18.80;99.90;;;;;;4971482;28;20493;-77
2023/08/06 08:05:41;;;;;;;6.72;5.30;;;19.00;99.90;;;;;;4979356;28;20132;-77
2023/08/06 08:08:07;;;;;;;7.30;5.43;;;19.20;99.90;;;;;;4965308;28;20045;-77
2023/08/06 08:10:34;;;;;;;5.45;4.45;;;19.30;99.90;;;;;;4979624;28;20497;-77
2023/08/06 08:13:04;;;;;;;7.97;4.32;;;19.50;99.90;;;;;;4978486;28;20112;-77
2023/08/06 08:15:30;;;;;;;5.70;4.88;;;19.60;99.90;;;;;;4971467;28;20038;-76
2023/08/06 08:17:56;;;;;;;6.97;5.25;;;19.70;99.90;;;;;;4984402;28;20061;-77
2023/08/06 08:20:21;;;;;;;6.32;4.60;;;19.70;99.90;;;;;;4955763;28;20039;-77
2023/08/06 08:22:47;;;;;;;4.85;4.35;;;19.90;99.90;;;;;;4975701;28;20464;-76
2023/08/06 08:25:13;;;;;;;5.05;4.55;;;20.10;99.90;;;;;;4977208;28;20498;-76
2023/08/06 08:27:39;;;;;;;6.15;4.88;;;20.20;99.90;;;;;;4961204;28;20073;-77
2023/08/06 08:30:05;;;;;;;5.57;3.78;;;20.40;99.90;;;;;;4973594;28;20062;-76
2023/08/06 08:32:31;;;;;;;4.88;3.40;;;20.60;99.90;;;;;;4974823;28;20061;-76
2023/08/06 08:34:56;;;;;;;5.97;3.55;;;20.80;99.90;;;;;;4953572;28;20042;-77
2023/08/06 08:37:23;;;;;;;4.50;3.42;;;21.00;99.90;;;;;;4963847;28;20113;-77
2023/08/06 08:39:49;;;;;;;4.10;3.42;;;21.20;99.90;;;;;;4971292;28;20054;-76
2023/08/06 08:42:15;;;;;;;4.25;3.40;;;21.40;99.90;;;;;;4949305;28;20061;-76
2023/08/06 08:44:42;;;;;;;3.60;2.78;;;21.40;99.90;;;;;;4971711;28;20045;-76
2023/08/06 08:47:10;;;;;;;5.05;3.30;;;21.60;99.90;;;;;;4982408;28;20049;-76
2023/08/06 08:49:37;;;;;;;5.00;2.70;;;21.70;99.90;;;;;;4983317;28;20061;-76
2023/08/06 08:52:07;;;;;;;3.53;3.13;;;21.90;99.90;;;;;;4984668;28;20034;-76
2023/08/06 08:54:35;;;;;;;3.83;2.33;;;21.90;99.90;;;;;;4971079;28;20046;-76
2023/08/06 08:57:00;;;;;;;2.80;2.20;;;21.90;99.90;;;;;;4981129;28;20069;-76
2023/08/06 08:59:27;;;;;;;3.20;2.35;;;22.00;99.90;;;;;;4976690;28;20485;-76
2023/08/06 09:01:54;;;;;;;5.55;2.22;;;22.20;99.90;;;;;;4971742;28;20038;-75
2023/08/06 09:04:21;;;;;;;3.50;2.13;;;22.20;99.90;;;;;;4977522;28;20046;-77
2023/08/06 09:06:53;;;;;;;3.70;2.40;;;22.10;99.90;;;;;;4975462;28;20046;-76
2023/08/06 09:09:29;;;;;;;3.88;2.20;;;22.00;99.90;;;;;;4977322;28;20069;-76
2023/08/06 09:12:01;;;;;;;4.72;2.40;;;21.80;99.90;;;;;;4999150;28;20445;-76
2023/08/06 09:14:27;;;;;;;2.67;2.08;;;21.80;99.90;;;;;;4976386;28;20418;-77
2023/08/06 09:16:53;;;;;;;3.70;1.85;;;21.60;99.90;;;;;;4958933;28;20042;-77
2023/08/06 09:19:18;;;;;;;3.70;1.67;;;21.50;99.90;;;;;;4976384;28;20046;-76
2023/08/06 09:21:48;;;;;;;2.60;2.08;;;21.40;99.90;;;;;;4969134;28;20093;-77
2023/08/06 09:24:14;;;;;;;2.78;1.80;;;21.30;99.90;;;;;;4971140;28;20046;-76
2023/08/06 09:26:41;;;;;;;3.00;1.83;;;21.40;99.90;;;;;;4972012;28;20042;-77
2023/08/06 09:29:08;;;;;;;2.72;1.80;;;21.30;99.90;;;;;;4980115;28;20516;-77
2023/08/06 09:31:42;;;;;;;2.47;1.88;;;21.20;99.90;;;;;;4976371;28;20053;-77
2023/08/06 09:34:19;;;;;;;3.00;1.80;;;21.30;99.90;;;;;;4967528;28;20069;-77
2023/08/06 09:36:51;;;;;;;5.07;2.17;;;21.40;99.90;;;;;;4973093;28;20053;-77
2023/08/06 09:39:19;;;;;;;2.95;2.03;;;21.50;99.90;;;;;;4971419;28;20097;-77
2023/08/06 09:41:49;;;;;;;2.60;1.80;;;21.50;99.90;;;;;;4988892;28;20054;-76
2023/08/06 09:44:19;;;;;;;2.92;1.88;;;21.50;99.90;;;;;;4977256;28;20096;-76
2023/08/06 09:46:55;;;;;;;3.65;2.15;;;21.50;99.90;;;;;;4992423;28;20042;-77
2023/08/06 09:49:46;;;;;;;3.45;2.00;;;21.50;99.90;;;;;;4975004;28;20129;-78
2023/08/06 09:52:13;;;;;;;5.80;2.20;;;21.60;99.90;;;;;;4979165;28;20038;-77
2023/08/06 09:54:39;;;;;;;2.97;2.10;;;21.60;99.90;;;;;;4978199;28;20042;-79
2023/08/06 09:57:05;;;;;;;2.80;1.90;;;21.60;99.90;;;;;;4962722;28;20038;-78
2023/08/06 09:59:32;;;;;;;2.78;1.52;;;21.70;99.90;;;;;;4963444;28;20073;-78
2023/08/06 10:01:58;;;;;;;2.13;1.73;;;21.70;99.90;;;;;;4977177;28;20049;-78
2023/08/06 10:04:24;;;;;;;2.40;2.00;;;21.80;99.90;;;;;;4979879;28;20516;-78
2023/08/06 10:06:50;;;;;;;3.83;2.30;;;21.90;99.90;;;;;;4978062;28;20034;-77
2023/08/06 10:09:16;;;;;;;5.40;1.85;;;21.90;99.90;;;;;;4978583;28;20045;-78
2023/08/06 10:11:43;;;;;;;2.58;1.75;;;21.90;99.90;;;;;;4974164;28;20042;-77
2023/08/06 10:14:26;;;;;;;3.65;1.92;;;21.70;99.90;;;;;;4978850;28;20398;-77
2023/08/06 10:16:53;;;;;;;2.92;1.80;;;21.40;99.90;;;;;;4988612;28;20450;-78
2023/08/06 10:19:19;;;;;;;2.83;1.75;;;21.50;99.90;;;;;;4976442;28;20030;-78
2023/08/06 10:22:13;;;;;;;3.05;1.90;;;21.80;99.90;;;;;;4975145;28;20046;-78
2023/08/06 10:25:04;;;;;;;2.20;1.80;;;21.90;99.90;;;;;;4978355;28;20422;-78
2023/08/06 10:27:34;;;;;;;4.35;1.90;;;22.10;99.90;;;;;;4991963;28;20069;-78
2023/08/06 10:30:30;;;;;;;2.67;1.60;;;22.20;99.90;;;;;;4991400;28;20046;-81
2023/08/06 10:33:00;;;;;;;3.40;1.60;;;22.20;99.90;;;;;;4974856;28;20050;-78
2023/08/06 10:35:32;;;;;;;2.60;1.63;;;22.30;99.90;;;;;;4973829;28;20121;-77
2023/08/06 10:38:05;;;;;;;2.70;1.77;;;22.30;99.90;;;;;;4969128;28;20034;-80
2023/08/06 10:40:32;;;;;;;4.85;1.75;;;22.30;99.90;;;;;;4960852;28;20042;-76
2023/08/06 10:43:06;;;;;;;3.13;1.80;;;22.30;99.90;;;;;;4974487;28;20047;-77
2023/08/06 10:45:35;;;;;;;2.45;1.77;;;22.30;99.90;;;;;;4973729;28;20050;-78
2023/08/06 10:48:00;;;;;;;3.67;1.83;;;22.20;99.90;;;;;;4972910;28;20031;-76
2023/08/06 10:50:26;;;;;;;2.58;1.90;;;22.30;99.90;;;;;;4974862;28;20462;-76
2023/08/06 10:52:52;;;;;;;2.97;1.75;;;22.20;99.90;;;;;;4976055;28;20034;-77
2023/08/06 10:55:29;;;;;;;2.25;1.80;;;22.00;99.90;;;;;;4976183;28;20402;-76
2023/08/06 10:57:55;;;;;;;3.40;1.65;;;22.10;99.90;;;;;;4967181;28;20065;-78
2023/08/06 11:00:24;;;;;;;4.40;1.73;;;22.20;99.90;;;;;;4972267;28;20042;-77
2023/08/06 11:02:52;;;;;;;3.05;2.00;;;22.20;99.90;;;;;;4976194;28;20053;-77
2023/08/06 11:05:18;;;;;;;3.25;1.90;;;22.10;99.90;;;;;;4975596;28;20077;-77
2023/08/06 11:07:44;;;;;;;2.47;1.73;;;22.20;99.90;;;;;;4975991;28;20074;-78
2023/08/06 11:10:12;;;;;;;4.20;2.00;;;22.30;99.90;;;;;;4975965;28;20484;-77
2023/08/06 11:12:38;;;;;;;3.15;1.77;;;22.30;99.90;;;;;;4975311;28;20117;-77
2023/08/06 11:15:04;;;;;;;2.85;1.90;;;22.40;99.90;;;;;;4975151;28;20046;-78
2023/08/06 11:17:31;;;;;;;2.10;1.80;;;22.20;99.90;;;;;;4975446;28;20510;-76
2023/08/06 11:20:00;;;;;;;3.03;1.77;;;22.20;99.90;;;;;;4975401;28;20111;-77
2023/08/06 11:22:26;;;;;;;3.15;1.70;;;22.00;99.90;;;;;;4975875;28;20358;-75
2023/08/06 11:24:53;;;;;;;3.70;1.90;;;22.10;99.90;;;;;;4971838;28;20050;-77
2023/08/06 11:27:18;;;;;;;3.25;1.77;;;22.00;99.90;;;;;;4971224;28;20035;-76
2023/08/06 11:29:44;;;;;;;3.72;1.48;;;21.90;99.90;;;;;;4971428;28;20525;-76
2023/08/06 11:32:11;;;;;;;3.20;1.60;;;22.00;99.90;;;;;;4973623;28;20038;-76
2023/08/06 11:34:38;;;;;;;4.15;1.90;;;21.90;99.90;;;;;;4971942;28;20536;-76
2023/08/06 11:37:07;;;;;;;3.67;1.80;;;22.10;99.90;;;;;;4970075;28;20077;-76
2023/08/06 11:39:35;;;;;;;2.63;1.50;;;22.10;99.90;;;;;;4971740;28;20038;-76
2023/08/06 11:42:04;;;;;;;2.83;1.73;;;22.30;99.90;;;;;;4971966;28;20089;-77
2023/08/06 11:44:36;;;;;;;10.05;3.58;;;22.40;99.90;;;;;;4972894;28;20097;-77
2023/08/06 11:47:05;;;;;;;4.88;2.40;;;22.60;99.90;;;;;;4972882;28;20093;-76
2023/08/06 11:49:43;;;;;;;5.35;1.80;;;22.70;99.90;;;;;;4948084;28;20034;-77
2023/08/06 11:52:12;;;;;;;2.70;1.75;;;23.00;99.90;;;;;;4955339;28;20045;-77
2023/08/06 11:54:38;;;;;;;2.42;1.58;;;22.80;99.90;;;;;;4981583;28;20109;-76
2023/08/06 11:57:05;;;;;;;3.17;1.70;;;22.90;99.90;;;;;;4972101;28;20545;-76
2023/08/06 11:59:31;;;;;;;3.05;1.70;;;22.80;99.90;;;;;;4971077;28;20083;-76
2023/08/06 12:01:56;;;;;;;3.83;2.00;;;22.90;99.90;;;;;;4966145;28;20049;-76
2023/08/06 12:04:22;;;;;;;4.28;1.88;;;23.00;99.90;;;;;;4973327;28;20034;-77
2023/08/06 12:06:47;;;;;;;2.50;1.80;;;23.20;99.90;;;;;;4965003;28;20038;-77
2023/08/06 12:09:13;;;;;;;6.82;2.40;;;23.20;99.90;;;;;;4955986;28;21051;-77
2023/08/06 12:11:39;;;;;;;3.47;2.20;;;23.20;99.90;;;;;;4978125;28;20074;-77
2023/08/06 12:14:04;;;;;;;3.20;1.73;;;23.30;99.90;;;;;;4961342;28;20047;-78
2023/08/06 12:16:30;;;;;;;2.35;1.58;;;23.40;99.90;;;;;;4968455;28;20045;-76
2023/08/06 12:18:55;;;;;;;2.83;1.70;;;23.10;99.90;;;;;;4965978;28;20362;-77
2023/08/06 12:21:21;;;;;;;3.03;1.60;;;23.30;99.90;;;;;;4971218;28;20117;-78
2023/08/06 12:23:46;;;;;;;3.72;1.90;;;23.30;99.90;;;;;;4973357;28;20089;-78
2023/08/06 12:26:12;;;;;;;3.22;1.90;;;23.70;99.90;;;;;;4970860;28;20520;-77
2023/08/06 12:28:37;;;;;;;3.30;1.65;;;23.90;99.90;;;;;;4973775;28;20045;-79
2023/08/06 12:31:03;;;;;;;2.83;1.77;;;23.90;99.90;;;;;;4980525;28;20109;-78
2023/08/06 12:33:28;;;;;;;2.85;1.80;;;23.90;99.90;;;;;;4987038;28;20107;-77
2023/08/06 12:35:54;;;;;;;3.67;1.80;;;24.20;99.90;;;;;;4985228;28;20525;-78
2023/08/06 12:38:20;;;;;;;3.30;1.90;;;24.20;99.90;;;;;;4980252;28;20509;-77
2023/08/06 12:40:46;;;;;;;2.40;1.60;;;24.00;99.90;;;;;;4967306;28;20210;-79